Airfield :







YOU CAN JOIN US ON...

 
LOGIN :

Register | Disclaimer

   EN    FR    IT 

 









Legend :    VFR   Marginal VFR   IFR   Intensive IFR   Very Intensive IFR
Visi :
Ceiling :
>= 8 km
>= 3000ft
5 to 8 km
1000 to 3000 ft
1500m to 5 km
500 to 1000 ft
800 to 1500m
200 to 500 ft
< 800m
< 200 ft
Symbols :   Thunderstorms  Fog  Heavy snow  Heavy precipitations  Wind > 20 kt







- Airport Elevation : 110 ft
- IATA code : YFB


CYFB - Iqaluit

CURRENT METAR :
  • 181800Z 14018KT 20SM -SN DRSN OVC009 M04/M06 A2976 RMK SC8 SLP083

EXPIRED METARs :
  • 181751Z 14017G22KT 20SM -SN DRSN BKN008 OVC021 M04/M06 A2976 RMK SC7SC1 SLP082
  • 181741Z 14019G25KT 30SM DRSN OVC009 M04/M06 A2976 RMK SC8 SLP083
  • 181700Z 14019G25KT 30SM DRSN OVC010 M04/M06 A2978 RMK SC8 SLP089
  • 181600Z 15015G21KT 30SM DRSN OVC011 M04/M07 A2980 RMK SC8 SLP096

TAF AMD TAF CYFB
Valid from the 18 at 18:00 until the 19 at 18:00 UTC


181758Z 1818/1918 14020G30KT P6SM OVC010
TEMPO 1818/1906 5SM -SN BLSN OVC008
PROB30 1818/1824 2SM -SN BLSN
FM190600 15015KT 3SM -SN BLSN OVC010 RMK NXT FCST BY 190000Z
CZUL FIR / North America



MET'MAP, your aeronautical weather chart ! - Copyright ORBIFLY December 2007 - Disclaimer

ORBIFLY MET'MAP TEAM :

Programming & Development : Alexandra Zaïnal
Concept & Development : Baudouin d'Aumeries
Co-Development & Prog : Marc-Olivier Méhu
Technical & hardware support : Manuel Goepfert

Contact : metmap@orbifly.com




SOURCES & CREDITS :

   NOAA